sensor_id;sensor_type;location;lat;lon;timestamp;P1;durP1;ratioP1;P2;durP2;ratioP2
11486;SDS011;10510;47.942;9.442;2023-05-23T00:00:28;16.92;;;10.65;;
11486;SDS011;10510;47.942;9.442;2023-05-23T00:02:28;13.60;;;8.85;;
11486;SDS011;10510;47.942;9.442;2023-05-23T00:04:29;15.60;;;9.38;;
11486;SDS011;10510;47.942;9.442;2023-05-23T00:06:29;17.40;;;11.00;;
11486;SDS011;10510;47.942;9.442;2023-05-23T00:08:30;18.08;;;10.55;;
11486;SDS011;10510;47.942;9.442;2023-05-23T00:10:30;16.50;;;10.00;;
11486;SDS011;10510;47.942;9.442;2023-05-23T00:12:30;17.63;;;11.18;;
11486;SDS011;10510;47.942;9.442;2023-05-23T00:14:32;25.90;;;11.40;;
11486;SDS011;10510;47.942;9.442;2023-05-23T00:16:34;16.98;;;11.05;;
11486;SDS011;10510;47.942;9.442;2023-05-23T00:18:35;17.08;;;10.77;;
11486;SDS011;10510;47.942;9.442;2023-05-23T00:20:36;19.40;;;11.23;;
11486;SDS011;10510;47.942;9.442;2023-05-23T00:22:41;18.05;;;10.23;;
11486;SDS011;10510;47.942;9.442;2023-05-23T00:24:42;16.20;;;9.57;;
11486;SDS011;10510;47.942;9.442;2023-05-23T00:26:45;20.35;;;10.20;;
11486;SDS011;10510;47.942;9.442;2023-05-23T00:28:46;15.95;;;10.05;;
11486;SDS011;10510;47.942;9.442;2023-05-23T00:30:46;17.42;;;11.07;;
11486;SDS011;10510;47.942;9.442;2023-05-23T00:32:48;18.42;;;11.95;;
11486;SDS011;10510;47.942;9.442;2023-05-23T00:34:48;13.88;;;9.50;;
11486;SDS011;10510;47.942;9.442;2023-05-23T00:36:48;16.27;;;9.98;;
11486;SDS011;10510;47.942;9.442;2023-05-23T00:38:49;16.13;;;10.35;;
11486;SDS011;10510;47.942;9.442;2023-05-23T00:40:49;20.52;;;10.88;;
11486;SDS011;10510;47.942;9.442;2023-05-23T00:42:49;17.65;;;9.80;;
11486;SDS011;10510;47.942;9.442;2023-05-23T00:44:50;15.63;;;9.82;;
11486;SDS011;10510;47.942;9.442;2023-05-23T00:46:52;17.40;;;10.70;;
11486;SDS011;10510;47.942;9.442;2023-05-23T00:48:55;17.45;;;10.90;;
11486;SDS011;10510;47.942;9.442;2023-05-23T00:50:55;18.58;;;11.32;;
11486;SDS011;10510;47.942;9.442;2023-05-23T00:52:56;18.80;;;11.15;;
11486;SDS011;10510;47.942;9.442;2023-05-23T00:54:59;18.00;;;10.50;;
11486;SDS011;10510;47.942;9.442;2023-05-23T00:56:59;17.88;;;10.80;;
11486;SDS011;10510;47.942;9.442;2023-05-23T00:59:00;16.35;;;10.40;;
11486;SDS011;10510;47.942;9.442;2023-05-23T01:01:00;17.60;;;11.57;;
11486;SDS011;10510;47.942;9.442;2023-05-23T01:03:00;19.35;;;10.80;;
11486;SDS011;10510;47.942;9.442;2023-05-23T01:05:02;16.75;;;10.93;;
11486;SDS011;10510;47.942;9.442;2023-05-23T01:07:02;18.67;;;11.27;;
11486;SDS011;10510;47.942;9.442;2023-05-23T01:09:02;18.60;;;10.25;;
11486;SDS011;10510;47.942;9.442;2023-05-23T01:11:05;17.15;;;10.18;;
11486;SDS011;10510;47.942;9.442;2023-05-23T01:13:27;17.40;;;10.90;;
11486;SDS011;10510;47.942;9.442;2023-05-23T01:16:12;20.33;;;11.77;;
11486;SDS011;10510;47.942;9.442;2023-05-23T01:20:10;17.88;;;10.98;;
11486;SDS011;10510;47.942;9.442;2023-05-23T01:22:15;20.02;;;10.23;;
11486;SDS011;10510;47.942;9.442;2023-05-23T01:24:35;18.52;;;10.90;;
11486;SDS011;10510;47.942;9.442;2023-05-23T01:26:51;18.23;;;11.02;;
11486;SDS011;10510;47.942;9.442;2023-05-23T01:29:06;18.05;;;10.75;;
11486;SDS011;10510;47.942;9.442;2023-05-23T01:31:10;18.77;;;10.02;;
11486;SDS011;10510;47.942;9.442;2023-05-23T01:33:11;21.23;;;11.38;;
11486;SDS011;10510;47.942;9.442;2023-05-23T01:35:18;16.63;;;10.77;;
11486;SDS011;10510;47.942;9.442;2023-05-23T01:37:26;16.17;;;9.98;;
11486;SDS011;10510;47.942;9.442;2023-05-23T01:39:28;18.90;;;10.30;;
11486;SDS011;10510;47.942;9.442;2023-05-23T01:41:28;23.02;;;10.77;;
11486;SDS011;10510;47.942;9.442;2023-05-23T01:43:29;16.13;;;10.75;;
11486;SDS011;10510;47.942;9.442;2023-05-23T01:45:29;18.77;;;10.98;;
11486;SDS011;10510;47.942;9.442;2023-05-23T01:47:30;17.35;;;11.00;;
11486;SDS011;10510;47.942;9.442;2023-05-23T01:49:31;16.98;;;10.23;;
11486;SDS011;10510;47.942;9.442;2023-05-23T01:51:33;21.48;;;10.50;;
11486;SDS011;10510;47.942;9.442;2023-05-23T01:53:34;17.58;;;10.25;;
11486;SDS011;10510;47.942;9.442;2023-05-23T01:55:36;19.45;;;10.02;;
11486;SDS011;10510;47.942;9.442;2023-05-23T01:57:38;17.45;;;10.52;;
11486;SDS011;10510;47.942;9.442;2023-05-23T01:59:38;14.50;;;9.77;;
11486;SDS011;10510;47.942;9.442;2023-05-23T02:01:39;15.95;;;9.65;;
11486;SDS011;10510;47.942;9.442;2023-05-23T02:03:40;16.35;;;9.65;;
11486;SDS011;10510;47.942;9.442;2023-05-23T02:05:40;16.27;;;9.27;;
11486;SDS011;10510;47.942;9.442;2023-05-23T02:07:41;20.77;;;9.52;;
11486;SDS011;10510;47.942;9.442;2023-05-23T02:09:41;18.02;;;9.30;;
11486;SDS011;10510;47.942;9.442;2023-05-23T02:11:41;14.00;;;9.77;;
11486;SDS011;10510;47.942;9.442;2023-05-23T02:13:41;14.27;;;9.05;;
11486;SDS011;10510;47.942;9.442;2023-05-23T02:15:42;18.13;;;9.95;;
11486;SDS011;10510;47.942;9.442;2023-05-23T02:17:42;16.45;;;9.45;;
11486;SDS011;10510;47.942;9.442;2023-05-23T02:19:42;17.05;;;9.77;;
11486;SDS011;10510;47.942;9.442;2023-05-23T02:21:42;16.80;;;9.80;;
11486;SDS011;10510;47.942;9.442;2023-05-23T02:23:43;14.55;;;9.07;;
11486;SDS011;10510;47.942;9.442;2023-05-23T02:25:43;18.23;;;9.05;;
11486;SDS011;10510;47.942;9.442;2023-05-23T02:27:43;14.48;;;9.23;;
11486;SDS011;10510;47.942;9.442;2023-05-23T02:29:44;16.02;;;9.27;;
11486;SDS011;10510;47.942;9.442;2023-05-23T02:31:44;17.05;;;10.18;;
11486;SDS011;10510;47.942;9.442;2023-05-23T02:33:44;16.02;;;11.05;;
11486;SDS011;10510;47.942;9.442;2023-05-23T02:35:44;16.05;;;10.52;;
11486;SDS011;10510;47.942;9.442;2023-05-23T02:37:45;22.30;;;10.65;;
11486;SDS011;10510;47.942;9.442;2023-05-23T02:39:45;17.50;;;10.63;;
11486;SDS011;10510;47.942;9.442;2023-05-23T02:41:45;19.38;;;10.00;;
11486;SDS011;10510;47.942;9.442;2023-05-23T02:43:46;20.90;;;10.73;;
11486;SDS011;10510;47.942;9.442;2023-05-23T02:45:46;15.18;;;9.77;;
11486;SDS011;10510;47.942;9.442;2023-05-23T02:47:46;17.45;;;10.43;;
11486;SDS011;10510;47.942;9.442;2023-05-23T02:49:47;17.60;;;10.50;;
11486;SDS011;10510;47.942;9.442;2023-05-23T02:51:47;19.33;;;10.50;;
11486;SDS011;10510;47.942;9.442;2023-05-23T02:53:47;18.42;;;10.73;;
11486;SDS011;10510;47.942;9.442;2023-05-23T02:55:47;17.02;;;10.15;;
11486;SDS011;10510;47.942;9.442;2023-05-23T02:57:48;15.20;;;9.82;;
11486;SDS011;10510;47.942;9.442;2023-05-23T02:59:48;17.05;;;10.63;;
11486;SDS011;10510;47.942;9.442;2023-05-23T03:01:48;17.83;;;10.10;;
11486;SDS011;10510;47.942;9.442;2023-05-23T03:03:48;19.73;;;10.68;;
11486;SDS011;10510;47.942;9.442;2023-05-23T03:05:49;15.70;;;9.75;;
11486;SDS011;10510;47.942;9.442;2023-05-23T03:07:50;17.58;;;10.63;;
11486;SDS011;10510;47.942;9.442;2023-05-23T03:09:53;20.08;;;10.68;;
11486;SDS011;10510;47.942;9.442;2023-05-23T03:11:53;17.08;;;10.88;;
11486;SDS011;10510;47.942;9.442;2023-05-23T03:13:54;19.02;;;11.00;;
11486;SDS011;10510;47.942;9.442;2023-05-23T03:15:55;15.93;;;9.73;;
11486;SDS011;10510;47.942;9.442;2023-05-23T03:17:55;20.48;;;10.02;;
11486;SDS011;10510;47.942;9.442;2023-05-23T03:19:55;17.30;;;10.00;;
11486;SDS011;10510;47.942;9.442;2023-05-23T03:21:56;15.35;;;9.40;;
11486;SDS011;10510;47.942;9.442;2023-05-23T03:23:56;14.88;;;9.07;;
11486;SDS011;10510;47.942;9.442;2023-05-23T03:25:56;15.73;;;8.90;;
11486;SDS011;10510;47.942;9.442;2023-05-23T03:27:58;14.60;;;9.27;;
11486;SDS011;10510;47.942;9.442;2023-05-23T03:29:59;16.10;;;9.88;;
11486;SDS011;10510;47.942;9.442;2023-05-23T03:31:59;16.00;;;10.23;;
11486;SDS011;10510;47.942;9.442;2023-05-23T03:33:59;17.08;;;9.60;;
11486;SDS011;10510;47.942;9.442;2023-05-23T03:36:00;14.18;;;9.25;;
11486;SDS011;10510;47.942;9.442;2023-05-23T03:38:00;14.02;;;9.60;;
11486;SDS011;10510;47.942;9.442;2023-05-23T03:40:00;16.20;;;9.98;;
11486;SDS011;10510;47.942;9.442;2023-05-23T03:42:00;31.77;;;11.38;;
11486;SDS011;10510;47.942;9.442;2023-05-23T03:44:01;25.85;;;11.57;;
11486;SDS011;10510;47.942;9.442;2023-05-23T03:46:02;22.30;;;11.43;;
11486;SDS011;10510;47.942;9.442;2023-05-23T03:48:02;26.58;;;11.77;;
11486;SDS011;10510;47.942;9.442;2023-05-23T03:50:03;21.67;;;11.68;;
11486;SDS011;10510;47.942;9.442;2023-05-23T03:52:03;21.35;;;11.35;;
11486;SDS011;10510;47.942;9.442;2023-05-23T03:54:03;20.95;;;11.65;;
11486;SDS011;10510;47.942;9.442;2023-05-23T03:56:04;16.73;;;10.40;;
11486;SDS011;10510;47.942;9.442;2023-05-23T03:58:04;22.00;;;13.02;;
11486;SDS011;10510;47.942;9.442;2023-05-23T04:00:05;21.25;;;11.93;;
11486;SDS011;10510;47.942;9.442;2023-05-23T04:02:10;18.73;;;11.57;;
11486;SDS011;10510;47.942;9.442;2023-05-23T04:04:11;24.42;;;11.77;;
11486;SDS011;10510;47.942;9.442;2023-05-23T04:06:11;24.23;;;13.18;;
11486;SDS011;10510;47.942;9.442;2023-05-23T04:08:11;23.23;;;12.05;;
11486;SDS011;10510;47.942;9.442;2023-05-23T04:10:12;22.05;;;12.32;;
11486;SDS011;10510;47.942;9.442;2023-05-23T04:12:12;25.73;;;12.15;;
11486;SDS011;10510;47.942;9.442;2023-05-23T04:14:12;28.30;;;12.65;;
11486;SDS011;10510;47.942;9.442;2023-05-23T04:16:13;20.92;;;11.90;;
11486;SDS011;10510;47.942;9.442;2023-05-23T04:18:13;22.63;;;13.00;;
11486;SDS011;10510;47.942;9.442;2023-05-23T04:20:14;19.27;;;11.65;;
11486;SDS011;10510;47.942;9.442;2023-05-23T04:22:14;21.42;;;12.13;;
11486;SDS011;10510;47.942;9.442;2023-05-23T04:24:14;24.70;;;13.02;;
11486;SDS011;10510;47.942;9.442;2023-05-23T04:26:15;24.33;;;12.23;;
11486;SDS011;10510;47.942;9.442;2023-05-23T04:28:15;21.13;;;12.95;;
11486;SDS011;10510;47.942;9.442;2023-05-23T04:30:16;25.83;;;12.85;;
11486;SDS011;10510;47.942;9.442;2023-05-23T04:32:17;21.83;;;13.15;;
11486;SDS011;10510;47.942;9.442;2023-05-23T04:34:18;24.35;;;14.27;;
11486;SDS011;10510;47.942;9.442;2023-05-23T04:36:21;24.42;;;14.68;;
11486;SDS011;10510;47.942;9.442;2023-05-23T04:38:22;26.95;;;14.65;;
11486;SDS011;10510;47.942;9.442;2023-05-23T04:40:24;22.73;;;13.43;;
11486;SDS011;10510;47.942;9.442;2023-05-23T04:42:24;26.33;;;14.38;;
11486;SDS011;10510;47.942;9.442;2023-05-23T04:44:24;24.45;;;14.00;;
11486;SDS011;10510;47.942;9.442;2023-05-23T04:46:25;25.63;;;15.75;;
11486;SDS011;10510;47.942;9.442;2023-05-23T04:48:25;30.00;;;14.88;;
11486;SDS011;10510;47.942;9.442;2023-05-23T04:50:26;29.45;;;16.70;;
11486;SDS011;10510;47.942;9.442;2023-05-23T04:52:30;34.22;;;18.98;;
11486;SDS011;10510;47.942;9.442;2023-05-23T04:54:32;38.95;;;20.75;;
11486;SDS011;10510;47.942;9.442;2023-05-23T04:56:33;34.30;;;19.42;;
11486;SDS011;10510;47.942;9.442;2023-05-23T04:58:33;37.95;;;19.85;;
11486;SDS011;10510;47.942;9.442;2023-05-23T05:00:33;33.22;;;19.63;;
11486;SDS011;10510;47.942;9.442;2023-05-23T05:02:35;35.45;;;19.20;;
11486;SDS011;10510;47.942;9.442;2023-05-23T05:04:36;33.45;;;18.88;;
11486;SDS011;10510;47.942;9.442;2023-05-23T05:06:36;35.30;;;18.52;;
11486;SDS011;10510;47.942;9.442;2023-05-23T05:08:37;32.78;;;18.95;;
11486;SDS011;10510;47.942;9.442;2023-05-23T05:10:39;35.80;;;19.25;;
11486;SDS011;10510;47.942;9.442;2023-05-23T05:12:40;37.05;;;19.55;;
11486;SDS011;10510;47.942;9.442;2023-05-23T05:14:40;32.65;;;18.98;;
11486;SDS011;10510;47.942;9.442;2023-05-23T05:16:41;42.25;;;21.00;;
11486;SDS011;10510;47.942;9.442;2023-05-23T05:18:41;36.00;;;20.90;;
11486;SDS011;10510;47.942;9.442;2023-05-23T05:20:41;32.35;;;18.60;;
11486;SDS011;10510;47.942;9.442;2023-05-23T05:22:42;31.65;;;17.48;;
11486;SDS011;10510;47.942;9.442;2023-05-23T05:24:42;26.35;;;15.75;;
11486;SDS011;10510;47.942;9.442;2023-05-23T05:26:42;36.85;;;18.50;;
11486;SDS011;10510;47.942;9.442;2023-05-23T05:28:43;37.67;;;20.58;;
11486;SDS011;10510;47.942;9.442;2023-05-23T05:30:43;39.65;;;20.60;;
11486;SDS011;10510;47.942;9.442;2023-05-23T05:32:45;52.20;;;25.75;;
11486;SDS011;10510;47.942;9.442;2023-05-23T05:34:45;39.55;;;19.38;;
11486;SDS011;10510;47.942;9.442;2023-05-23T05:36:45;48.28;;;24.58;;
11486;SDS011;10510;47.942;9.442;2023-05-23T05:38:46;37.13;;;18.77;;
11486;SDS011;10510;47.942;9.442;2023-05-23T05:40:47;31.83;;;17.35;;
11486;SDS011;10510;47.942;9.442;2023-05-23T05:42:47;34.03;;;18.40;;
11486;SDS011;10510;47.942;9.442;2023-05-23T05:44:48;30.67;;;18.02;;
11486;SDS011;10510;47.942;9.442;2023-05-23T05:46:48;40.53;;;22.02;;
11486;SDS011;10510;47.942;9.442;2023-05-23T05:48:49;34.80;;;20.33;;
11486;SDS011;10510;47.942;9.442;2023-05-23T05:50:49;37.95;;;20.02;;
11486;SDS011;10510;47.942;9.442;2023-05-23T05:52:49;35.30;;;19.13;;
11486;SDS011;10510;47.942;9.442;2023-05-23T05:54:50;39.00;;;21.42;;
11486;SDS011;10510;47.942;9.442;2023-05-23T05:56:50;33.70;;;20.73;;
11486;SDS011;10510;47.942;9.442;2023-05-23T05:58:50;33.72;;;18.98;;
11486;SDS011;10510;47.942;9.442;2023-05-23T06:00:50;39.83;;;20.38;;
11486;SDS011;10510;47.942;9.442;2023-05-23T06:02:52;38.60;;;21.73;;
11486;SDS011;10510;47.942;9.442;2023-05-23T06:04:56;43.53;;;21.45;;
11486;SDS011;10510;47.942;9.442;2023-05-23T06:06:56;37.75;;;21.80;;
11486;SDS011;10510;47.942;9.442;2023-05-23T06:08:56;39.60;;;22.08;;
11486;SDS011;10510;47.942;9.442;2023-05-23T06:10:56;41.85;;;21.65;;
11486;SDS011;10510;47.942;9.442;2023-05-23T06:12:57;38.75;;;22.33;;
11486;SDS011;10510;47.942;9.442;2023-05-23T06:14:58;39.75;;;21.50;;
11486;SDS011;10510;47.942;9.442;2023-05-23T06:16:59;38.53;;;22.58;;
11486;SDS011;10510;47.942;9.442;2023-05-23T06:18:59;41.95;;;21.35;;
11486;SDS011;10510;47.942;9.442;2023-05-23T06:20:59;39.05;;;21.23;;
11486;SDS011;10510;47.942;9.442;2023-05-23T06:22:59;40.38;;;22.42;;
11486;SDS011;10510;47.942;9.442;2023-05-23T06:25:00;42.58;;;22.83;;
11486;SDS011;10510;47.942;9.442;2023-05-23T06:27:01;46.08;;;24.52;;
11486;SDS011;10510;47.942;9.442;2023-05-23T06:29:01;45.40;;;24.80;;
11486;SDS011;10510;47.942;9.442;2023-05-23T06:31:01;48.92;;;25.48;;
11486;SDS011;10510;47.942;9.442;2023-05-23T06:33:01;47.78;;;25.30;;
11486;SDS011;10510;47.942;9.442;2023-05-23T06:35:02;42.20;;;23.90;;
11486;SDS011;10510;47.942;9.442;2023-05-23T06:37:03;46.90;;;24.10;;
11486;SDS011;10510;47.942;9.442;2023-05-23T06:39:03;46.83;;;24.88;;
11486;SDS011;10510;47.942;9.442;2023-05-23T06:41:03;47.70;;;26.40;;
11486;SDS011;10510;47.942;9.442;2023-05-23T06:43:05;45.20;;;25.27;;
11486;SDS011;10510;47.942;9.442;2023-05-23T06:45:06;46.08;;;26.92;;
11486;SDS011;10510;47.942;9.442;2023-05-23T06:47:07;55.13;;;27.15;;
11486;SDS011;10510;47.942;9.442;2023-05-23T06:49:07;55.00;;;27.15;;
11486;SDS011;10510;47.942;9.442;2023-05-23T06:51:07;55.70;;;27.67;;
11486;SDS011;10510;47.942;9.442;2023-05-23T06:53:09;52.30;;;25.95;;
11486;SDS011;10510;47.942;9.442;2023-05-23T06:55:09;54.92;;;27.25;;
11486;SDS011;10510;47.942;9.442;2023-05-23T06:57:13;51.60;;;27.42;;
11486;SDS011;10510;47.942;9.442;2023-05-23T06:59:13;51.65;;;27.23;;
11486;SDS011;10510;47.942;9.442;2023-05-23T07:01:14;52.58;;;27.45;;
11486;SDS011;10510;47.942;9.442;2023-05-23T07:03:14;49.70;;;26.75;;
11486;SDS011;10510;47.942;9.442;2023-05-23T07:05:15;53.90;;;28.00;;
11486;SDS011;10510;47.942;9.442;2023-05-23T07:07:16;54.03;;;27.98;;
11486;SDS011;10510;47.942;9.442;2023-05-23T07:09:16;51.60;;;29.33;;
11486;SDS011;10510;47.942;9.442;2023-05-23T07:11:16;51.88;;;27.40;;
11486;SDS011;10510;47.942;9.442;2023-05-23T07:13:17;48.63;;;26.73;;
11486;SDS011;10510;47.942;9.442;2023-05-23T07:15:17;48.83;;;28.73;;
11486;SDS011;10510;47.942;9.442;2023-05-23T07:17:17;52.58;;;28.30;;
11486;SDS011;10510;47.942;9.442;2023-05-23T07:19:18;51.10;;;27.55;;
11486;SDS011;10510;47.942;9.442;2023-05-23T07:21:18;49.28;;;26.50;;
11486;SDS011;10510;47.942;9.442;2023-05-23T07:23:18;58.55;;;27.85;;
11486;SDS011;10510;47.942;9.442;2023-05-23T07:25:19;58.83;;;27.60;;
11486;SDS011;10510;47.942;9.442;2023-05-23T07:27:21;59.40;;;26.83;;
11486;SDS011;10510;47.942;9.442;2023-05-23T07:29:21;47.35;;;25.33;;
11486;SDS011;10510;47.942;9.442;2023-05-23T07:31:22;55.92;;;27.33;;
11486;SDS011;10510;47.942;9.442;2023-05-23T07:33:22;57.08;;;28.15;;
11486;SDS011;10510;47.942;9.442;2023-05-23T07:35:23;55.33;;;27.65;;
11486;SDS011;10510;47.942;9.442;2023-05-23T07:37:25;58.28;;;28.30;;
11486;SDS011;10510;47.942;9.442;2023-05-23T07:39:26;51.13;;;26.50;;
11486;SDS011;10510;47.942;9.442;2023-05-23T07:41:26;46.88;;;26.63;;
11486;SDS011;10510;47.942;9.442;2023-05-23T07:43:27;57.38;;;28.45;;
11486;SDS011;10510;47.942;9.442;2023-05-23T07:45:27;61.08;;;29.90;;
11486;SDS011;10510;47.942;9.442;2023-05-23T07:47:27;58.25;;;28.50;;
11486;SDS011;10510;47.942;9.442;2023-05-23T07:49:28;55.85;;;27.45;;
11486;SDS011;10510;47.942;9.442;2023-05-23T07:51:28;53.92;;;27.77;;
11486;SDS011;10510;47.942;9.442;2023-05-23T07:53:29;56.53;;;27.95;;
11486;SDS011;10510;47.942;9.442;2023-05-23T07:55:30;53.70;;;28.60;;
11486;SDS011;10510;47.942;9.442;2023-05-23T07:57:30;56.67;;;28.50;;
11486;SDS011;10510;47.942;9.442;2023-05-23T07:59:30;50.38;;;27.50;;
11486;SDS011;10510;47.942;9.442;2023-05-23T08:01:30;54.58;;;27.48;;
11486;SDS011;10510;47.942;9.442;2023-05-23T08:03:31;44.45;;;26.13;;
11486;SDS011;10510;47.942;9.442;2023-05-23T08:05:31;54.83;;;26.52;;
11486;SDS011;10510;47.942;9.442;2023-05-23T08:07:31;49.53;;;27.02;;
11486;SDS011;10510;47.942;9.442;2023-05-23T08:09:32;47.40;;;26.10;;
11486;SDS011;10510;47.942;9.442;2023-05-23T08:11:32;45.45;;;24.88;;
11486;SDS011;10510;47.942;9.442;2023-05-23T08:13:32;48.22;;;25.90;;
11486;SDS011;10510;47.942;9.442;2023-05-23T08:15:32;44.20;;;24.47;;
11486;SDS011;10510;47.942;9.442;2023-05-23T08:17:32;53.40;;;27.23;;
11486;SDS011;10510;47.942;9.442;2023-05-23T08:19:33;44.85;;;24.83;;
11486;SDS011;10510;47.942;9.442;2023-05-23T08:21:34;45.58;;;25.70;;
11486;SDS011;10510;47.942;9.442;2023-05-23T08:23:35;43.35;;;23.48;;
11486;SDS011;10510;47.942;9.442;2023-05-23T08:25:35;45.00;;;24.98;;
11486;SDS011;10510;47.942;9.442;2023-05-23T08:27:35;44.20;;;24.33;;
11486;SDS011;10510;47.942;9.442;2023-05-23T08:29:36;46.83;;;25.58;;
11486;SDS011;10510;47.942;9.442;2023-05-23T08:31:37;44.22;;;25.92;;
11486;SDS011;10510;47.942;9.442;2023-05-23T08:33:37;43.90;;;21.92;;
11486;SDS011;10510;47.942;9.442;2023-05-23T08:35:37;45.03;;;23.65;;
11486;SDS011;10510;47.942;9.442;2023-05-23T08:37:38;42.80;;;24.63;;
11486;SDS011;10510;47.942;9.442;2023-05-23T08:39:38;41.00;;;24.48;;
11486;SDS011;10510;47.942;9.442;2023-05-23T08:41:38;44.22;;;26.13;;
11486;SDS011;10510;47.942;9.442;2023-05-23T08:43:39;43.00;;;24.88;;
11486;SDS011;10510;47.942;9.442;2023-05-23T08:45:39;44.22;;;23.77;;
11486;SDS011;10510;47.942;9.442;2023-05-23T08:47:41;40.35;;;22.42;;
11486;SDS011;10510;47.942;9.442;2023-05-23T08:49:43;41.40;;;23.73;;
11486;SDS011;10510;47.942;9.442;2023-05-23T08:51:44;44.25;;;24.05;;
11486;SDS011;10510;47.942;9.442;2023-05-23T08:53:46;42.30;;;24.98;;
11486;SDS011;10510;47.942;9.442;2023-05-23T08:55:47;47.60;;;25.75;;
11486;SDS011;10510;47.942;9.442;2023-05-23T08:57:50;42.50;;;24.30;;
11486;SDS011;10510;47.942;9.442;2023-05-23T08:59:51;39.63;;;22.92;;
11486;SDS011;10510;47.942;9.442;2023-05-23T09:01:52;37.30;;;22.00;;
11486;SDS011;10510;47.942;9.442;2023-05-23T09:03:55;41.38;;;22.10;;
11486;SDS011;10510;47.942;9.442;2023-05-23T09:05:59;37.13;;;22.50;;
11486;SDS011;10510;47.942;9.442;2023-05-23T09:07:59;39.33;;;22.83;;
11486;SDS011;10510;47.942;9.442;2023-05-23T09:10:00;40.67;;;23.13;;
11486;SDS011;10510;47.942;9.442;2023-05-23T09:12:00;42.97;;;23.95;;
11486;SDS011;10510;47.942;9.442;2023-05-23T09:14:02;42.95;;;23.52;;
11486;SDS011;10510;47.942;9.442;2023-05-23T09:16:04;42.25;;;22.85;;
11486;SDS011;10510;47.942;9.442;2023-05-23T09:18:06;37.67;;;22.73;;
11486;SDS011;10510;47.942;9.442;2023-05-23T09:20:11;38.90;;;21.90;;
11486;SDS011;10510;47.942;9.442;2023-05-23T09:22:13;40.75;;;24.02;;
11486;SDS011;10510;47.942;9.442;2023-05-23T09:24:14;43.22;;;24.05;;
11486;SDS011;10510;47.942;9.442;2023-05-23T09:26:14;51.28;;;28.30;;
11486;SDS011;10510;47.942;9.442;2023-05-23T09:28:14;64.18;;;34.90;;
11486;SDS011;10510;47.942;9.442;2023-05-23T09:30:15;46.85;;;25.98;;
11486;SDS011;10510;47.942;9.442;2023-05-23T09:32:17;38.78;;;22.95;;
11486;SDS011;10510;47.942;9.442;2023-05-23T09:34:18;40.28;;;22.20;;
11486;SDS011;10510;47.942;9.442;2023-05-23T09:36:19;34.15;;;20.95;;
11486;SDS011;10510;47.942;9.442;2023-05-23T09:38:19;37.30;;;20.77;;
11486;SDS011;10510;47.942;9.442;2023-05-23T09:40:19;34.35;;;22.80;;
11486;SDS011;10510;47.942;9.442;2023-05-23T09:42:20;37.78;;;21.40;;
11486;SDS011;10510;47.942;9.442;2023-05-23T09:44:24;34.50;;;21.58;;
11486;SDS011;10510;47.942;9.442;2023-05-23T09:46:27;31.70;;;19.55;;
11486;SDS011;10510;47.942;9.442;2023-05-23T09:48:29;38.70;;;20.45;;
11486;SDS011;10510;47.942;9.442;2023-05-23T09:50:31;35.13;;;21.10;;
11486;SDS011;10510;47.942;9.442;2023-05-23T09:52:34;36.30;;;20.88;;
11486;SDS011;10510;47.942;9.442;2023-05-23T09:54:37;35.90;;;20.40;;
11486;SDS011;10510;47.942;9.442;2023-05-23T09:56:38;36.13;;;20.40;;
11486;SDS011;10510;47.942;9.442;2023-05-23T09:58:43;35.08;;;22.08;;
11486;SDS011;10510;47.942;9.442;2023-05-23T10:00:47;36.53;;;19.55;;
11486;SDS011;10510;47.942;9.442;2023-05-23T10:03:07;32.40;;;19.45;;
11486;SDS011;10510;47.942;9.442;2023-05-23T10:05:11;32.65;;;19.38;;
11486;SDS011;10510;47.942;9.442;2023-05-23T10:07:21;27.67;;;18.70;;
11486;SDS011;10510;47.942;9.442;2023-05-23T10:09:24;34.38;;;18.83;;
11486;SDS011;10510;47.942;9.442;2023-05-23T10:13:33;29.38;;;18.55;;
11486;SDS011;10510;47.942;9.442;2023-05-23T10:15:38;28.80;;;18.02;;
11486;SDS011;10510;47.942;9.442;2023-05-23T10:20:05;33.33;;;16.98;;
11486;SDS011;10510;47.942;9.442;2023-05-23T10:22:09;28.38;;;18.08;;
11486;SDS011;10510;47.942;9.442;2023-05-23T10:24:11;28.98;;;18.90;;
11486;SDS011;10510;47.942;9.442;2023-05-23T10:26:13;25.77;;;17.20;;
11486;SDS011;10510;47.942;9.442;2023-05-23T10:28:14;27.40;;;17.25;;
11486;SDS011;10510;47.942;9.442;2023-05-23T10:30:15;28.38;;;18.38;;
11486;SDS011;10510;47.942;9.442;2023-05-23T10:32:15;28.05;;;16.13;;
11486;SDS011;10510;47.942;9.442;2023-05-23T10:36:55;27.48;;;18.55;;
11486;SDS011;10510;47.942;9.442;2023-05-23T10:43:58;29.30;;;19.27;;
11486;SDS011;10510;47.942;9.442;2023-05-23T10:46:08;29.52;;;19.40;;
11486;SDS011;10510;47.942;9.442;2023-05-23T10:50:43;30.52;;;18.45;;
11486;SDS011;10510;47.942;9.442;2023-05-23T10:52:45;29.30;;;17.77;;
11486;SDS011;10510;47.942;9.442;2023-05-23T10:54:53;26.70;;;18.63;;
11486;SDS011;10510;47.942;9.442;2023-05-23T10:57:01;29.73;;;18.77;;
11486;SDS011;10510;47.942;9.442;2023-05-23T10:59:04;30.13;;;19.75;;
11486;SDS011;10510;47.942;9.442;2023-05-23T11:01:06;29.23;;;18.38;;
11486;SDS011;10510;47.942;9.442;2023-05-23T11:03:12;28.08;;;17.52;;
11486;SDS011;10510;47.942;9.442;2023-05-23T11:05:22;24.65;;;17.73;;
11486;SDS011;10510;47.942;9.442;2023-05-23T11:07:32;30.63;;;18.92;;
11486;SDS011;10510;47.942;9.442;2023-05-23T11:09:34;28.15;;;18.00;;
11486;SDS011;10510;47.942;9.442;2023-05-23T11:15:54;24.92;;;16.52;;
11486;SDS011;10510;47.942;9.442;2023-05-23T11:17:55;23.88;;;15.63;;
11486;SDS011;10510;47.942;9.442;2023-05-23T11:22:07;27.30;;;17.20;;
11486;SDS011;10510;47.942;9.442;2023-05-23T11:24:08;23.52;;;15.40;;
11486;SDS011;10510;47.942;9.442;2023-05-23T11:26:27;21.95;;;15.45;;
11486;SDS011;10510;47.942;9.442;2023-05-23T11:28:28;24.58;;;15.52;;
11486;SDS011;10510;47.942;9.442;2023-05-23T11:30:29;21.75;;;14.80;;
11486;SDS011;10510;47.942;9.442;2023-05-23T11:32:30;22.42;;;15.27;;
11486;SDS011;10510;47.942;9.442;2023-05-23T11:34:30;22.88;;;15.45;;
11486;SDS011;10510;47.942;9.442;2023-05-23T11:36:33;26.83;;;15.52;;
11486;SDS011;10510;47.942;9.442;2023-05-23T11:38:34;22.77;;;15.00;;
11486;SDS011;10510;47.942;9.442;2023-05-23T11:42:40;23.27;;;15.77;;
11486;SDS011;10510;47.942;9.442;2023-05-23T11:44:41;26.48;;;15.65;;
11486;SDS011;10510;47.942;9.442;2023-05-23T11:46:41;22.40;;;15.20;;
11486;SDS011;10510;47.942;9.442;2023-05-23T11:48:58;26.02;;;17.13;;
11486;SDS011;10510;47.942;9.442;2023-05-23T11:50:58;25.70;;;16.00;;
11486;SDS011;10510;47.942;9.442;2023-05-23T11:52:59;23.77;;;16.08;;
11486;SDS011;10510;47.942;9.442;2023-05-23T11:54:59;24.98;;;16.42;;
11486;SDS011;10510;47.942;9.442;2023-05-23T11:57:00;25.08;;;16.73;;
11486;SDS011;10510;47.942;9.442;2023-05-23T11:59:02;27.10;;;17.73;;
11486;SDS011;10510;47.942;9.442;2023-05-23T12:01:03;26.70;;;17.20;;
11486;SDS011;10510;47.942;9.442;2023-05-23T12:03:05;27.38;;;17.05;;
11486;SDS011;10510;47.942;9.442;2023-05-23T12:05:09;29.48;;;19.05;;
11486;SDS011;10510;47.942;9.442;2023-05-23T12:07:17;32.85;;;21.20;;
11486;SDS011;10510;47.942;9.442;2023-05-23T12:09:18;27.15;;;18.60;;
11486;SDS011;10510;47.942;9.442;2023-05-23T12:11:19;28.10;;;18.80;;
11486;SDS011;10510;47.942;9.442;2023-05-23T12:13:24;31.75;;;19.75;;
11486;SDS011;10510;47.942;9.442;2023-05-23T12:15:27;31.83;;;19.63;;
11486;SDS011;10510;47.942;9.442;2023-05-23T12:17:29;33.63;;;21.98;;